sensor_id;sensor_type;location;lat;lon;timestamp;P1;durP1;ratioP1;P2;durP2;ratioP2
82032;SDS011;71595;52.180;4.512;2024-03-07T00:01:54;31.98;;;16.05;;
82032;SDS011;71595;52.180;4.512;2024-03-07T00:06:45;30.50;;;14.70;;
82032;SDS011;71595;52.180;4.512;2024-03-07T00:09:11;37.50;;;15.80;;
82032;SDS011;71595;52.180;4.512;2024-03-07T00:11:36;29.50;;;15.85;;
82032;SDS011;71595;52.180;4.512;2024-03-07T00:14:09;34.55;;;15.43;;
82032;SDS011;71595;52.180;4.512;2024-03-07T00:16:35;31.70;;;15.50;;
82032;SDS011;71595;52.180;4.512;2024-03-07T00:21:27;27.48;;;14.95;;
82032;SDS011;71595;52.180;4.512;2024-03-07T00:26:19;30.92;;;14.52;;
82032;SDS011;71595;52.180;4.512;2024-03-07T00:31:09;29.63;;;13.13;;
82032;SDS011;71595;52.180;4.512;2024-03-07T00:33:35;32.45;;;14.45;;
82032;SDS011;71595;52.180;4.512;2024-03-07T00:36:00;32.15;;;14.60;;
82032;SDS011;71595;52.180;4.512;2024-03-07T00:38:26;30.42;;;14.25;;
82032;SDS011;71595;52.180;4.512;2024-03-07T00:40:51;27.90;;;13.88;;
82032;SDS011;71595;52.180;4.512;2024-03-07T00:43:17;31.90;;;15.40;;
82032;SDS011;71595;52.180;4.512;2024-03-07T00:45:42;32.42;;;14.95;;
82032;SDS011;71595;52.180;4.512;2024-03-07T00:48:07;35.03;;;14.23;;
82032;SDS011;71595;52.180;4.512;2024-03-07T00:50:33;31.33;;;14.95;;
82032;SDS011;71595;52.180;4.512;2024-03-07T00:52:58;35.67;;;15.32;;
82032;SDS011;71595;52.180;4.512;2024-03-07T00:55:24;34.05;;;16.13;;
82032;SDS011;71595;52.180;4.512;2024-03-07T00:57:50;34.42;;;14.75;;
82032;SDS011;71595;52.180;4.512;2024-03-07T01:00:15;31.50;;;14.90;;
82032;SDS011;71595;52.180;4.512;2024-03-07T01:02:51;34.60;;;14.88;;
82032;SDS011;71595;52.180;4.512;2024-03-07T01:05:18;33.40;;;14.88;;
82032;SDS011;71595;52.180;4.512;2024-03-07T01:10:11;32.35;;;14.93;;
82032;SDS011;71595;52.180;4.512;2024-03-07T01:12:38;33.40;;;14.63;;
82032;SDS011;71595;52.180;4.512;2024-03-07T01:15:03;34.95;;;15.65;;
82032;SDS011;71595;52.180;4.512;2024-03-07T01:17:46;32.72;;;15.20;;
82032;SDS011;71595;52.180;4.512;2024-03-07T01:20:11;34.47;;;15.88;;
82032;SDS011;71595;52.180;4.512;2024-03-07T01:22:36;33.95;;;15.77;;
82032;SDS011;71595;52.180;4.512;2024-03-07T01:25:02;31.88;;;15.95;;
82032;SDS011;71595;52.180;4.512;2024-03-07T01:27:29;29.10;;;15.30;;
82032;SDS011;71595;52.180;4.512;2024-03-07T01:29:55;36.88;;;16.20;;
82032;SDS011;71595;52.180;4.512;2024-03-07T01:32:20;38.78;;;16.15;;
82032;SDS011;71595;52.180;4.512;2024-03-07T01:34:46;33.50;;;15.63;;
82032;SDS011;71595;52.180;4.512;2024-03-07T01:37:11;34.90;;;16.33;;
82032;SDS011;71595;52.180;4.512;2024-03-07T01:39:37;32.90;;;15.45;;
82032;SDS011;71595;52.180;4.512;2024-03-07T01:42:02;32.45;;;15.55;;
82032;SDS011;71595;52.180;4.512;2024-03-07T01:44:28;33.67;;;16.00;;
82032;SDS011;71595;52.180;4.512;2024-03-07T01:46:57;34.80;;;15.50;;
82032;SDS011;71595;52.180;4.512;2024-03-07T01:49:23;33.22;;;15.48;;
82032;SDS011;71595;52.180;4.512;2024-03-07T01:51:49;34.05;;;15.40;;
82032;SDS011;71595;52.180;4.512;2024-03-07T01:54:14;36.28;;;15.50;;
82032;SDS011;71595;52.180;4.512;2024-03-07T01:56:40;38.08;;;16.98;;
82032;SDS011;71595;52.180;4.512;2024-03-07T01:59:07;35.95;;;16.77;;
82032;SDS011;71595;52.180;4.512;2024-03-07T02:01:33;34.72;;;16.95;;
82032;SDS011;71595;52.180;4.512;2024-03-07T02:04:01;36.92;;;16.98;;
82032;SDS011;71595;52.180;4.512;2024-03-07T02:06:26;34.85;;;16.20;;
82032;SDS011;71595;52.180;4.512;2024-03-07T02:08:53;37.25;;;16.13;;
82032;SDS011;71595;52.180;4.512;2024-03-07T02:11:21;39.17;;;17.88;;
82032;SDS011;71595;52.180;4.512;2024-03-07T02:13:48;37.95;;;15.75;;
82032;SDS011;71595;52.180;4.512;2024-03-07T02:16:14;37.13;;;16.23;;
82032;SDS011;71595;52.180;4.512;2024-03-07T02:18:39;37.47;;;17.88;;
82032;SDS011;71595;52.180;4.512;2024-03-07T02:21:06;39.70;;;18.27;;
82032;SDS011;71595;52.180;4.512;2024-03-07T02:23:34;40.50;;;17.50;;
82032;SDS011;71595;52.180;4.512;2024-03-07T02:25:59;35.92;;;16.85;;
82032;SDS011;71595;52.180;4.512;2024-03-07T02:28:25;41.53;;;18.15;;
82032;SDS011;71595;52.180;4.512;2024-03-07T02:30:50;41.92;;;17.50;;
82032;SDS011;71595;52.180;4.512;2024-03-07T02:33:16;38.85;;;17.02;;
82032;SDS011;71595;52.180;4.512;2024-03-07T02:35:42;36.85;;;16.50;;
82032;SDS011;71595;52.180;4.512;2024-03-07T02:38:07;39.20;;;17.00;;
82032;SDS011;71595;52.180;4.512;2024-03-07T02:40:33;39.28;;;17.17;;
82032;SDS011;71595;52.180;4.512;2024-03-07T02:42:59;37.17;;;16.38;;
82032;SDS011;71595;52.180;4.512;2024-03-07T02:45:24;40.13;;;16.48;;
82032;SDS011;71595;52.180;4.512;2024-03-07T02:47:50;40.03;;;16.67;;
82032;SDS011;71595;52.180;4.512;2024-03-07T02:50:16;37.38;;;17.38;;
82032;SDS011;71595;52.180;4.512;2024-03-07T02:52:42;40.95;;;17.95;;
82032;SDS011;71595;52.180;4.512;2024-03-07T02:55:07;37.30;;;17.80;;
82032;SDS011;71595;52.180;4.512;2024-03-07T02:57:35;39.95;;;18.13;;
82032;SDS011;71595;52.180;4.512;2024-03-07T03:00:01;43.60;;;20.35;;
82032;SDS011;71595;52.180;4.512;2024-03-07T03:02:28;47.50;;;18.73;;
82032;SDS011;71595;52.180;4.512;2024-03-07T03:04:53;41.55;;;18.23;;
82032;SDS011;71595;52.180;4.512;2024-03-07T03:07:19;41.28;;;17.92;;
82032;SDS011;71595;52.180;4.512;2024-03-07T03:09:51;41.65;;;17.38;;
82032;SDS011;71595;52.180;4.512;2024-03-07T03:12:16;46.25;;;19.52;;
82032;SDS011;71595;52.180;4.512;2024-03-07T03:14:41;42.58;;;18.90;;
82032;SDS011;71595;52.180;4.512;2024-03-07T03:17:07;41.90;;;19.17;;
82032;SDS011;71595;52.180;4.512;2024-03-07T03:19:34;38.38;;;17.00;;
82032;SDS011;71595;52.180;4.512;2024-03-07T03:21:59;47.83;;;18.58;;
82032;SDS011;71595;52.180;4.512;2024-03-07T03:24:28;39.33;;;17.45;;
82032;SDS011;71595;52.180;4.512;2024-03-07T03:26:53;40.55;;;18.10;;
82032;SDS011;71595;52.180;4.512;2024-03-07T03:29:18;38.67;;;19.65;;
82032;SDS011;71595;52.180;4.512;2024-03-07T03:31:44;37.80;;;17.35;;
82032;SDS011;71595;52.180;4.512;2024-03-07T03:34:09;40.53;;;18.13;;
82032;SDS011;71595;52.180;4.512;2024-03-07T03:36:34;43.20;;;18.35;;
82032;SDS011;71595;52.180;4.512;2024-03-07T03:39:00;39.08;;;18.02;;
82032;SDS011;71595;52.180;4.512;2024-03-07T03:41:26;40.72;;;16.73;;
82032;SDS011;71595;52.180;4.512;2024-03-07T03:43:52;39.10;;;16.95;;
82032;SDS011;71595;52.180;4.512;2024-03-07T03:48:43;42.25;;;16.70;;
82032;SDS011;71595;52.180;4.512;2024-03-07T03:51:09;38.00;;;17.88;;
82032;SDS011;71595;52.180;4.512;2024-03-07T03:53:35;36.20;;;17.17;;
82032;SDS011;71595;52.180;4.512;2024-03-07T03:56:01;42.25;;;18.08;;
82032;SDS011;71595;52.180;4.512;2024-03-07T03:58:29;40.42;;;18.25;;
82032;SDS011;71595;52.180;4.512;2024-03-07T04:03:20;40.40;;;16.50;;
82032;SDS011;71595;52.180;4.512;2024-03-07T04:05:46;40.53;;;17.10;;
82032;SDS011;71595;52.180;4.512;2024-03-07T04:08:12;38.83;;;17.58;;
82032;SDS011;71595;52.180;4.512;2024-03-07T04:10:37;37.88;;;17.60;;
82032;SDS011;71595;52.180;4.512;2024-03-07T04:13:04;40.28;;;19.25;;
82032;SDS011;71595;52.180;4.512;2024-03-07T04:15:29;42.85;;;19.75;;
82032;SDS011;71595;52.180;4.512;2024-03-07T04:17:56;42.03;;;18.90;;
82032;SDS011;71595;52.180;4.512;2024-03-07T04:20:22;43.95;;;18.73;;
82032;SDS011;71595;52.180;4.512;2024-03-07T04:25:14;43.50;;;17.92;;
82032;SDS011;71595;52.180;4.512;2024-03-07T04:27:42;41.70;;;19.70;;
82032;SDS011;71595;52.180;4.512;2024-03-07T04:30:08;41.05;;;18.35;;
82032;SDS011;71595;52.180;4.512;2024-03-07T04:32:37;38.88;;;17.73;;
82032;SDS011;71595;52.180;4.512;2024-03-07T04:37:32;44.55;;;18.10;;
82032;SDS011;71595;52.180;4.512;2024-03-07T04:40:02;45.97;;;18.10;;
82032;SDS011;71595;52.180;4.512;2024-03-07T04:42:29;38.55;;;18.52;;
82032;SDS011;71595;52.180;4.512;2024-03-07T04:44:55;43.17;;;19.38;;
82032;SDS011;71595;52.180;4.512;2024-03-07T04:47:21;45.90;;;19.77;;
82032;SDS011;71595;52.180;4.512;2024-03-07T04:49:46;45.22;;;18.95;;
82032;SDS011;71595;52.180;4.512;2024-03-07T04:52:12;39.15;;;18.30;;
82032;SDS011;71595;52.180;4.512;2024-03-07T04:54:37;48.08;;;20.73;;
82032;SDS011;71595;52.180;4.512;2024-03-07T04:57:02;46.25;;;19.10;;
82032;SDS011;71595;52.180;4.512;2024-03-07T04:59:28;42.70;;;19.55;;
82032;SDS011;71595;52.180;4.512;2024-03-07T05:04:19;41.53;;;18.35;;
82032;SDS011;71595;52.180;4.512;2024-03-07T05:06:45;40.50;;;19.65;;
82032;SDS011;71595;52.180;4.512;2024-03-07T05:09:13;41.40;;;18.73;;
82032;SDS011;71595;52.180;4.512;2024-03-07T05:11:48;38.10;;;18.45;;
82032;SDS011;71595;52.180;4.512;2024-03-07T05:14:14;41.55;;;18.95;;
82032;SDS011;71595;52.180;4.512;2024-03-07T05:16:41;41.13;;;18.35;;
82032;SDS011;71595;52.180;4.512;2024-03-07T05:19:08;42.53;;;17.77;;
82032;SDS011;71595;52.180;4.512;2024-03-07T05:21:33;40.58;;;18.77;;
82032;SDS011;71595;52.180;4.512;2024-03-07T05:24:02;40.47;;;18.58;;
82032;SDS011;71595;52.180;4.512;2024-03-07T05:26:29;45.22;;;17.25;;
82032;SDS011;71595;52.180;4.512;2024-03-07T05:29:06;37.72;;;18.05;;
82032;SDS011;71595;52.180;4.512;2024-03-07T05:31:38;43.63;;;18.83;;
82032;SDS011;71595;52.180;4.512;2024-03-07T05:34:09;40.35;;;19.30;;
82032;SDS011;71595;52.180;4.512;2024-03-07T05:36:35;43.85;;;19.17;;
82032;SDS011;71595;52.180;4.512;2024-03-07T05:41:33;41.42;;;17.60;;
82032;SDS011;71595;52.180;4.512;2024-03-07T05:43:59;39.38;;;18.50;;
82032;SDS011;71595;52.180;4.512;2024-03-07T05:46:25;45.45;;;17.85;;
82032;SDS011;71595;52.180;4.512;2024-03-07T05:48:50;38.60;;;17.30;;
82032;SDS011;71595;52.180;4.512;2024-03-07T05:51:20;40.28;;;17.83;;
82032;SDS011;71595;52.180;4.512;2024-03-07T05:53:46;38.63;;;17.80;;
82032;SDS011;71595;52.180;4.512;2024-03-07T05:56:11;38.70;;;18.05;;
82032;SDS011;71595;52.180;4.512;2024-03-07T05:58:37;37.13;;;18.83;;
82032;SDS011;71595;52.180;4.512;2024-03-07T06:01:02;45.10;;;18.17;;
82032;SDS011;71595;52.180;4.512;2024-03-07T06:03:28;38.47;;;17.42;;
82032;SDS011;71595;52.180;4.512;2024-03-07T06:05:53;41.42;;;17.58;;
82032;SDS011;71595;52.180;4.512;2024-03-07T06:08:19;43.25;;;18.10;;
82032;SDS011;71595;52.180;4.512;2024-03-07T06:10:46;42.03;;;18.08;;
82032;SDS011;71595;52.180;4.512;2024-03-07T06:13:13;41.90;;;17.88;;
82032;SDS011;71595;52.180;4.512;2024-03-07T06:15:42;38.95;;;17.85;;
82032;SDS011;71595;52.180;4.512;2024-03-07T06:18:08;39.08;;;17.60;;
82032;SDS011;71595;52.180;4.512;2024-03-07T06:20:35;39.55;;;17.50;;
82032;SDS011;71595;52.180;4.512;2024-03-07T06:23:02;43.00;;;17.83;;
82032;SDS011;71595;52.180;4.512;2024-03-07T06:25:30;36.95;;;17.13;;
82032;SDS011;71595;52.180;4.512;2024-03-07T06:28:04;39.53;;;17.52;;
82032;SDS011;71595;52.180;4.512;2024-03-07T06:30:37;41.20;;;19.33;;
82032;SDS011;71595;52.180;4.512;2024-03-07T06:33:04;39.30;;;17.85;;
82032;SDS011;71595;52.180;4.512;2024-03-07T06:35:30;37.53;;;17.23;;
82032;SDS011;71595;52.180;4.512;2024-03-07T06:37:55;44.03;;;18.05;;
82032;SDS011;71595;52.180;4.512;2024-03-07T06:40:21;41.85;;;19.25;;
82032;SDS011;71595;52.180;4.512;2024-03-07T06:45:13;39.65;;;17.30;;
82032;SDS011;71595;52.180;4.512;2024-03-07T06:47:38;41.50;;;18.25;;
82032;SDS011;71595;52.180;4.512;2024-03-07T06:50:03;39.30;;;17.20;;
82032;SDS011;71595;52.180;4.512;2024-03-07T06:52:33;40.00;;;18.02;;
82032;SDS011;71595;52.180;4.512;2024-03-07T06:54:59;34.47;;;17.98;;
82032;SDS011;71595;52.180;4.512;2024-03-07T06:57:24;39.08;;;17.13;;
82032;SDS011;71595;52.180;4.512;2024-03-07T06:59:50;43.40;;;17.90;;
82032;SDS011;71595;52.180;4.512;2024-03-07T07:02:15;37.92;;;16.95;;
82032;SDS011;71595;52.180;4.512;2024-03-07T07:04:41;41.85;;;18.55;;
82032;SDS011;71595;52.180;4.512;2024-03-07T07:07:12;38.00;;;18.17;;
82032;SDS011;71595;52.180;4.512;2024-03-07T07:09:39;45.97;;;19.73;;
82032;SDS011;71595;52.180;4.512;2024-03-07T07:12:05;42.97;;;18.88;;
82032;SDS011;71595;52.180;4.512;2024-03-07T07:14:31;43.38;;;19.52;;
82032;SDS011;71595;52.180;4.512;2024-03-07T07:16:56;39.05;;;18.35;;
82032;SDS011;71595;52.180;4.512;2024-03-07T07:19:24;46.13;;;21.23;;
82032;SDS011;71595;52.180;4.512;2024-03-07T07:21:49;43.28;;;19.02;;
82032;SDS011;71595;52.180;4.512;2024-03-07T07:24:18;39.95;;;19.02;;
82032;SDS011;71595;52.180;4.512;2024-03-07T07:26:44;43.33;;;19.20;;
82032;SDS011;71595;52.180;4.512;2024-03-07T07:29:10;46.75;;;19.65;;
82032;SDS011;71595;52.180;4.512;2024-03-07T07:31:36;38.88;;;18.60;;
82032;SDS011;71595;52.180;4.512;2024-03-07T07:34:01;38.08;;;19.10;;
82032;SDS011;71595;52.180;4.512;2024-03-07T07:36:29;40.45;;;18.58;;
82032;SDS011;71595;52.180;4.512;2024-03-07T07:38:54;45.60;;;19.63;;
82032;SDS011;71595;52.180;4.512;2024-03-07T07:41:20;39.10;;;18.48;;
82032;SDS011;71595;52.180;4.512;2024-03-07T07:43:45;41.10;;;16.92;;
82032;SDS011;71595;52.180;4.512;2024-03-07T07:46:10;37.55;;;18.55;;
82032;SDS011;71595;52.180;4.512;2024-03-07T07:48:36;45.95;;;20.00;;
82032;SDS011;71595;52.180;4.512;2024-03-07T07:51:01;40.55;;;19.48;;
82032;SDS011;71595;52.180;4.512;2024-03-07T07:53:30;42.17;;;19.85;;
82032;SDS011;71595;52.180;4.512;2024-03-07T07:55:55;49.97;;;20.30;;
82032;SDS011;71595;52.180;4.512;2024-03-07T07:58:20;38.67;;;19.23;;
82032;SDS011;71595;52.180;4.512;2024-03-07T08:00:46;36.58;;;17.42;;
82032;SDS011;71595;52.180;4.512;2024-03-07T08:03:13;40.80;;;18.95;;
82032;SDS011;71595;52.180;4.512;2024-03-07T08:05:42;37.83;;;18.35;;
82032;SDS011;71595;52.180;4.512;2024-03-07T08:08:08;41.20;;;19.65;;
82032;SDS011;71595;52.180;4.512;2024-03-07T08:10:36;39.85;;;18.67;;
82032;SDS011;71595;52.180;4.512;2024-03-07T08:13:03;41.10;;;18.73;;
82032;SDS011;71595;52.180;4.512;2024-03-07T08:15:31;39.97;;;17.25;;
82032;SDS011;71595;52.180;4.512;2024-03-07T08:17:57;41.80;;;18.50;;
82032;SDS011;71595;52.180;4.512;2024-03-07T08:20:24;34.10;;;16.02;;
82032;SDS011;71595;52.180;4.512;2024-03-07T08:22:53;39.65;;;19.15;;
82032;SDS011;71595;52.180;4.512;2024-03-07T08:25:20;32.97;;;16.17;;
82032;SDS011;71595;52.180;4.512;2024-03-07T08:27:50;40.45;;;17.90;;
82032;SDS011;71595;52.180;4.512;2024-03-07T08:30:17;42.38;;;17.65;;
82032;SDS011;71595;52.180;4.512;2024-03-07T08:32:49;37.97;;;17.52;;
82032;SDS011;71595;52.180;4.512;2024-03-07T08:35:19;39.00;;;18.80;;
82032;SDS011;71595;52.180;4.512;2024-03-07T08:40:11;34.28;;;17.20;;
82032;SDS011;71595;52.180;4.512;2024-03-07T08:42:44;45.90;;;19.50;;
82032;SDS011;71595;52.180;4.512;2024-03-07T08:45:11;35.35;;;17.27;;
82032;SDS011;71595;52.180;4.512;2024-03-07T08:50:03;36.63;;;15.93;;
82032;SDS011;71595;52.180;4.512;2024-03-07T08:52:33;34.63;;;17.20;;
82032;SDS011;71595;52.180;4.512;2024-03-07T08:55:03;33.80;;;17.02;;
82032;SDS011;71595;52.180;4.512;2024-03-07T08:59:54;27.50;;;14.68;;
82032;SDS011;71595;52.180;4.512;2024-03-07T09:02:20;30.02;;;15.13;;
82032;SDS011;71595;52.180;4.512;2024-03-07T09:04:45;30.15;;;15.82;;
82032;SDS011;71595;52.180;4.512;2024-03-07T09:09:37;28.13;;;14.52;;
82032;SDS011;71595;52.180;4.512;2024-03-07T09:12:02;32.10;;;14.13;;
82032;SDS011;71595;52.180;4.512;2024-03-07T09:16:53;31.63;;;12.57;;
82032;SDS011;71595;52.180;4.512;2024-03-07T09:21:45;28.98;;;13.82;;
82032;SDS011;71595;52.180;4.512;2024-03-07T09:24:11;32.30;;;14.27;;
82032;SDS011;71595;52.180;4.512;2024-03-07T09:26:37;27.02;;;13.43;;
82032;SDS011;71595;52.180;4.512;2024-03-07T09:29:03;27.52;;;13.60;;
82032;SDS011;71595;52.180;4.512;2024-03-07T09:31:31;27.73;;;14.13;;
82032;SDS011;71595;52.180;4.512;2024-03-07T09:33:57;24.25;;;13.13;;
82032;SDS011;71595;52.180;4.512;2024-03-07T09:38:49;21.90;;;11.23;;
82032;SDS011;71595;52.180;4.512;2024-03-07T09:43:41;22.85;;;11.68;;
82032;SDS011;71595;52.180;4.512;2024-03-07T09:46:20;24.33;;;12.25;;
82032;SDS011;71595;52.180;4.512;2024-03-07T09:48:46;23.48;;;11.85;;
82032;SDS011;71595;52.180;4.512;2024-03-07T09:51:14;23.02;;;12.77;;
82032;SDS011;71595;52.180;4.512;2024-03-07T09:53:42;24.23;;;12.02;;
82032;SDS011;71595;52.180;4.512;2024-03-07T09:56:21;24.27;;;12.73;;
82032;SDS011;71595;52.180;4.512;2024-03-07T09:58:48;22.73;;;12.18;;
82032;SDS011;71595;52.180;4.512;2024-03-07T10:01:15;21.48;;;12.70;;
82032;SDS011;71595;52.180;4.512;2024-03-07T10:03:44;20.30;;;11.00;;
82032;SDS011;71595;52.180;4.512;2024-03-07T10:06:11;19.70;;;11.30;;
82032;SDS011;71595;52.180;4.512;2024-03-07T10:08:38;24.40;;;11.77;;
82032;SDS011;71595;52.180;4.512;2024-03-07T10:11:05;21.48;;;11.40;;
82032;SDS011;71595;52.180;4.512;2024-03-07T10:15:56;21.17;;;10.40;;
82032;SDS011;71595;52.180;4.512;2024-03-07T10:18:25;21.27;;;11.32;;
82032;SDS011;71595;52.180;4.512;2024-03-07T10:20:55;18.92;;;10.50;;
82032;SDS011;71595;52.180;4.512;2024-03-07T10:23:24;22.30;;;11.20;;
82032;SDS011;71595;52.180;4.512;2024-03-07T10:25:50;18.00;;;10.63;;
82032;SDS011;71595;52.180;4.512;2024-03-07T10:28:16;19.00;;;9.98;;
82032;SDS011;71595;52.180;4.512;2024-03-07T10:30:43;20.75;;;10.23;;
82032;SDS011;71595;52.180;4.512;2024-03-07T10:33:13;15.98;;;10.63;;
82032;SDS011;71595;52.180;4.512;2024-03-07T10:38:04;18.75;;;9.82;;
82032;SDS011;71595;52.180;4.512;2024-03-07T10:40:37;18.60;;;9.63;;
82032;SDS011;71595;52.180;4.512;2024-03-07T10:43:07;19.15;;;9.98;;
82032;SDS011;71595;52.180;4.512;2024-03-07T10:45:37;18.27;;;10.18;;
82032;SDS011;71595;52.180;4.512;2024-03-07T10:48:17;18.77;;;10.20;;
82032;SDS011;71595;52.180;4.512;2024-03-07T11:01:07;16.30;;;9.90;;
82032;SDS011;71595;52.180;4.512;2024-03-07T11:03:39;16.88;;;9.18;;
82032;SDS011;71595;52.180;4.512;2024-03-07T11:06:05;17.33;;;9.32;;
82032;SDS011;71595;52.180;4.512;2024-03-07T11:15:26;15.98;;;9.88;;
82032;SDS011;71595;52.180;4.512;2024-03-07T11:17:53;14.63;;;8.55;;
82032;SDS011;71595;52.180;4.512;2024-03-07T11:20:20;14.38;;;9.15;;
82032;SDS011;71595;52.180;4.512;2024-03-07T11:22:50;14.38;;;8.93;;
82032;SDS011;71595;52.180;4.512;2024-03-07T11:25:18;17.73;;;9.73;;
82032;SDS011;71595;52.180;4.512;2024-03-07T11:27:56;16.25;;;9.25;;
82032;SDS011;71595;52.180;4.512;2024-03-07T11:30:22;14.68;;;8.70;;
82032;SDS011;71595;52.180;4.512;2024-03-07T11:32:49;15.57;;;8.80;;
82032;SDS011;71595;52.180;4.512;2024-03-07T11:35:18;16.23;;;8.85;;
82032;SDS011;71595;52.180;4.512;2024-03-07T11:37:59;20.38;;;9.02;;
82032;SDS011;71595;52.180;4.512;2024-03-07T11:42:52;15.43;;;9.10;;
82032;SDS011;71595;52.180;4.512;2024-03-07T11:45:19;17.88;;;9.23;;
82032;SDS011;71595;52.180;4.512;2024-03-07T11:47:50;16.33;;;9.57;;
82032;SDS011;71595;52.180;4.512;2024-03-07T11:50:25;14.68;;;8.15;;
82032;SDS011;71595;52.180;4.512;2024-03-07T11:52:54;17.17;;;9.23;;
82032;SDS011;71595;52.180;4.512;2024-03-07T11:55:21;16.38;;;8.95;;
82032;SDS011;71595;52.180;4.512;2024-03-07T11:57:48;15.73;;;9.15;;
82032;SDS011;71595;52.180;4.512;2024-03-07T12:00:15;15.55;;;8.13;;
82032;SDS011;71595;52.180;4.512;2024-03-07T12:02:42;15.20;;;8.65;;
82032;SDS011;71595;52.180;4.512;2024-03-07T12:05:13;16.23;;;8.57;;
82032;SDS011;71595;52.180;4.512;2024-03-07T12:07:41;16.50;;;8.82;;
82032;SDS011;71595;52.180;4.512;2024-03-07T12:10:08;16.00;;;8.80;;
82032;SDS011;71595;52.180;4.512;2024-03-07T12:14:59;16.15;;;8.90;;
82032;SDS011;71595;52.180;4.512;2024-03-07T12:19:50;15.93;;;8.55;;
82032;SDS011;71595;52.180;4.512;2024-03-07T12:22:19;18.52;;;9.57;;
82032;SDS011;71595;52.180;4.512;2024-03-07T12:24:48;16.20;;;9.02;;
82032;SDS011;71595;52.180;4.512;2024-03-07T12:27:27;14.43;;;8.77;;
82032;SDS011;71595;52.180;4.512;2024-03-07T12:29:54;15.77;;;9.05;;
82032;SDS011;71595;52.180;4.512;2024-03-07T12:32:20;16.35;;;8.85;;
82032;SDS011;71595;52.180;4.512;2024-03-07T12:34:46;16.10;;;8.90;;
82032;SDS011;71595;52.180;4.512;2024-03-07T12:39:41;16.70;;;8.50;;
82032;SDS011;71595;52.180;4.512;2024-03-07T12:42:24;15.80;;;9.10;;
82032;SDS011;71595;52.180;4.512;2024-03-07T12:44:50;16.50;;;8.23;;
82032;SDS011;71595;52.180;4.512;2024-03-07T12:49:41;14.07;;;7.80;;
82032;SDS011;71595;52.180;4.512;2024-03-07T12:52:07;17.42;;;8.30;;
82032;SDS011;71595;52.180;4.512;2024-03-07T12:54:34;20.70;;;9.20;;
82032;SDS011;71595;52.180;4.512;2024-03-07T12:57:05;18.20;;;9.15;;
82032;SDS011;71595;52.180;4.512;2024-03-07T12:59:33;16.98;;;8.90;;
82032;SDS011;71595;52.180;4.512;2024-03-07T13:02:08;17.95;;;8.95;;
82032;SDS011;71595;52.180;4.512;2024-03-07T13:04:37;20.55;;;9.35;;
82032;SDS011;71595;52.180;4.512;2024-03-07T13:09:29;16.58;;;8.35;;
82032;SDS011;71595;52.180;4.512;2024-03-07T13:11:56;16.63;;;8.45;;
82032;SDS011;71595;52.180;4.512;2024-03-07T13:14:22;18.33;;;9.45;;
82032;SDS011;71595;52.180;4.512;2024-03-07T13:19:13;15.90;;;8.65;;
82032;SDS011;71595;52.180;4.512;2024-03-07T13:21:39;16.13;;;9.20;;
82032;SDS011;71595;52.180;4.512;2024-03-07T13:26:30;14.43;;;7.93;;
82032;SDS011;71595;52.180;4.512;2024-03-07T13:31:25;16.50;;;8.32;;
82032;SDS011;71595;52.180;4.512;2024-03-07T13:36:16;18.13;;;9.13;;
82032;SDS011;71595;52.180;4.512;2024-03-07T13:38:51;17.30;;;8.82;;
82032;SDS011;71595;52.180;4.512;2024-03-07T13:41:18;15.93;;;8.57;;
82032;SDS011;71595;52.180;4.512;2024-03-07T13:43:44;16.20;;;8.45;;
82032;SDS011;71595;52.180;4.512;2024-03-07T13:46:10;17.50;;;8.43;;
82032;SDS011;71595;52.180;4.512;2024-03-07T13:48:37;16.33;;;8.02;;
82032;SDS011;71595;52.180;4.512;2024-03-07T13:51:03;16.50;;;8.70;;
82032;SDS011;71595;52.180;4.512;2024-03-07T13:53:33;15.85;;;9.27;;
82032;SDS011;71595;52.180;4.512;2024-03-07T14:32:47;15.57;;;7.95;;
82032;SDS011;71595;52.180;4.512;2024-03-07T14:35:25;16.33;;;7.97;;
82032;SDS011;71595;52.180;4.512;2024-03-07T14:40:45;14.63;;;7.88;;
82032;SDS011;71595;52.180;4.512;2024-03-07T14:43:14;15.13;;;7.43;;
82032;SDS011;71595;52.180;4.512;2024-03-07T14:45:42;14.48;;;7.88;;
82032;SDS011;71595;52.180;4.512;2024-03-07T14:48:08;13.50;;;8.13;;
82032;SDS011;71595;52.180;4.512;2024-03-07T14:50:38;17.27;;;8.80;;
82032;SDS011;71595;52.180;4.512;2024-03-07T14:53:05;15.27;;;7.88;;
82032;SDS011;71595;52.180;4.512;2024-03-07T14:55:31;14.27;;;8.07;;
82032;SDS011;71595;52.180;4.512;2024-03-07T14:57:58;14.35;;;7.95;;
82032;SDS011;71595;52.180;4.512;2024-03-07T15:00:24;17.48;;;8.68;;
82032;SDS011;71595;52.180;4.512;2024-03-07T15:02:53;16.27;;;8.43;;
82032;SDS011;71595;52.180;4.512;2024-03-07T15:08:11;14.70;;;8.20;;
82032;SDS011;71595;52.180;4.512;2024-03-07T15:13:06;16.95;;;8.80;;
82032;SDS011;71595;52.180;4.512;2024-03-07T15:15:33;17.33;;;9.82;;
82032;SDS011;71595;52.180;4.512;2024-03-07T15:17:59;21.08;;;10.55;;
82032;SDS011;71595;52.180;4.512;2024-03-07T15:23:00;17.65;;;9.43;;
82032;SDS011;71595;52.180;4.512;2024-03-07T15:25:28;17.92;;;9.75;;
82032;SDS011;71595;52.180;4.512;2024-03-07T15:27:55;18.27;;;9.73;;
82032;SDS011;71595;52.180;4.512;2024-03-07T15:30:22;17.95;;;9.45;;
82032;SDS011;71595;52.180;4.512;2024-03-07T15:32:57;18.35;;;9.82;;
82032;SDS011;71595;52.180;4.512;2024-03-07T15:35:23;19.00;;;9.98;;
82032;SDS011;71595;52.180;4.512;2024-03-07T15:37:51;18.33;;;10.02;;
82032;SDS011;71595;52.180;4.512;2024-03-07T15:40:18;20.65;;;11.23;;
82032;SDS011;71595;52.180;4.512;2024-03-07T15:42:46;17.52;;;9.60;;
82032;SDS011;71595;52.180;4.512;2024-03-07T15:45:22;16.67;;;9.40;;
82032;SDS011;71595;52.180;4.512;2024-03-07T15:47:50;15.73;;;9.50;;
82032;SDS011;71595;52.180;4.512;2024-03-07T15:50:16;16.95;;;9.80;;
82032;SDS011;71595;52.180;4.512;2024-03-07T15:52:46;20.42;;;10.77;;
82032;SDS011;71595;52.180;4.512;2024-03-07T15:55:13;18.40;;;10.02;;
82032;SDS011;71595;52.180;4.512;2024-03-07T15:57:45;17.63;;;9.75;;
82032;SDS011;71595;52.180;4.512;2024-03-07T16:00:17;15.88;;;8.55;;
82032;SDS011;71595;52.180;4.512;2024-03-07T16:03:02;19.60;;;9.93;;
82032;SDS011;71595;52.180;4.512;2024-03-07T16:05:29;15.93;;;8.57;;
82032;SDS011;71595;52.180;4.512;2024-03-07T16:07:59;17.02;;;9.80;;
82032;SDS011;71595;52.180;4.512;2024-03-07T16:10:29;16.25;;;9.73;;
82032;SDS011;71595;52.180;4.512;2024-03-07T16:12:56;15.38;;;9.18;;
82032;SDS011;71595;52.180;4.512;2024-03-07T16:15:23;15.80;;;8.45;;
82032;SDS011;71595;52.180;4.512;2024-03-07T16:20:14;13.18;;;7.68;;
82032;SDS011;71595;52.180;4.512;2024-03-07T16:25:06;13.88;;;7.57;;
82032;SDS011;71595;52.180;4.512;2024-03-07T16:27:33;14.30;;;8.30;;
82032;SDS011;71595;52.180;4.512;2024-03-07T16:32:23;13.67;;;6.97;;
82032;SDS011;71595;52.180;4.512;2024-03-07T16:37:14;14.75;;;8.18;;
82032;SDS011;71595;52.180;4.512;2024-03-07T16:42:08;14.20;;;7.82;;
82032;SDS011;71595;52.180;4.512;2024-03-07T16:44:47;14.68;;;8.20;;
82032;SDS011;71595;52.180;4.512;2024-03-07T16:47:12;14.65;;;8.15;;
82032;SDS011;71595;52.180;4.512;2024-03-07T16:52:04;15.20;;;8.02;;
82032;SDS011;71595;52.180;4.512;2024-03-07T16:54:32;15.48;;;8.02;;
82032;SDS011;71595;52.180;4.512;2024-03-07T16:57:00;16.95;;;8.68;;
82032;SDS011;71595;52.180;4.512;2024-03-07T17:01:51;14.57;;;7.68;;
82032;SDS011;71595;52.180;4.512;2024-03-07T17:04:16;14.30;;;7.40;;
82032;SDS011;71595;52.180;4.512;2024-03-07T17:09:07;12.65;;;7.07;;